createdAt,value
2019-04-04T00:01:19.198Z,4.83
2019-04-04T00:03:51.509Z,4.40
2019-04-04T00:06:20.874Z,5.00
2019-04-04T00:08:51.737Z,5.10
2019-04-04T00:11:21.720Z,5.00
2019-04-04T00:13:51.654Z,4.73
2019-04-04T00:16:21.779Z,4.90
2019-04-04T00:18:51.839Z,5.53
2019-04-04T00:21:21.841Z,5.40
2019-04-04T00:23:51.818Z,5.87
2019-04-04T00:26:21.890Z,4.83
2019-04-04T00:28:51.908Z,5.30
2019-04-04T00:31:21.830Z,5.50
2019-04-04T00:33:51.791Z,5.07
2019-04-04T00:36:21.714Z,5.80
2019-04-04T00:38:51.761Z,6.47
2019-04-04T00:41:21.844Z,6.03
2019-04-04T00:43:52.327Z,5.20
2019-04-04T00:46:22.511Z,6.20
2019-04-04T00:48:52.504Z,6.60
2019-04-04T00:51:22.398Z,6.40
2019-04-04T00:53:52.334Z,6.07
2019-04-04T00:56:22.337Z,6.30
2019-04-04T00:58:52.565Z,6.47
2019-04-04T01:01:26.108Z,5.70
2019-04-04T01:03:54.185Z,7.60
2019-04-04T01:06:24.278Z,6.30
2019-04-04T01:08:54.276Z,6.50
2019-04-04T01:11:24.225Z,6.80
2019-04-04T01:13:54.236Z,6.73
2019-04-04T01:16:24.178Z,6.17
2019-04-04T01:18:54.167Z,7.23
2019-04-04T01:21:24.175Z,6.60
2019-04-04T01:23:54.114Z,6.50
2019-04-04T01:26:24.106Z,6.00
2019-04-04T01:28:54.060Z,6.87
2019-04-04T01:31:23.960Z,5.33
2019-04-04T01:33:53.903Z,6.77
2019-04-04T01:36:26.012Z,5.93
2019-04-04T01:38:56.065Z,6.50
2019-04-04T01:41:26.032Z,9.60
2019-04-04T01:44:04.796Z,8.00
2019-04-04T01:46:27.539Z,9.00
2019-04-04T01:48:57.553Z,8.50
2019-04-04T01:51:27.473Z,8.20
2019-04-04T01:53:59.006Z,8.87
2019-04-04T01:56:29.878Z,8.43
2019-04-04T01:58:59.868Z,8.90
2019-04-04T02:01:29.863Z,7.80
2019-04-04T02:03:59.882Z,8.70
2019-04-04T02:06:29.859Z,9.57
2019-04-04T02:09:02.519Z,8.17
2019-04-04T02:11:31.554Z,6.93
2019-04-04T02:14:01.512Z,6.93
2019-04-04T02:16:31.539Z,6.93
2019-04-04T02:19:01.537Z,7.83
2019-04-04T02:21:31.574Z,7.83
2019-04-04T02:24:02.053Z,7.23
2019-04-04T02:26:32.038Z,7.80
2019-04-04T02:29:02.019Z,6.87
2019-04-04T02:31:35.814Z,7.63
2019-04-04T02:34:06.502Z,8.00
2019-04-04T02:36:36.611Z,8.07
2019-04-04T02:39:11.172Z,8.70
2019-04-04T02:41:41.468Z,9.67
2019-04-04T02:44:11.383Z,9.80
2019-04-04T02:46:44.514Z,9.37
2019-04-04T02:49:12.938Z,9.60
2019-04-04T02:51:43.034Z,9.07
2019-04-04T02:54:12.952Z,8.77
2019-04-04T02:56:42.894Z,10.07
2019-04-04T02:59:12.800Z,10.03
2019-04-04T03:01:42.777Z,11.80
2019-04-04T03:04:13.891Z,11.17
2019-04-04T03:06:43.572Z,9.77
2019-04-04T03:09:13.565Z,10.90
2019-04-04T03:11:43.566Z,9.80
2019-04-04T03:14:13.484Z,9.60
2019-04-04T03:19:11.688Z,8.60
2019-04-04T03:21:41.693Z,9.90
2019-04-04T03:24:11.747Z,8.33
2019-04-04T03:26:41.747Z,8.03
2019-04-04T03:29:11.783Z,8.90
2019-04-04T03:31:41.766Z,9.10
2019-04-04T03:34:13.295Z,9.50
2019-04-04T03:36:43.445Z,8.90
2019-04-04T03:39:13.461Z,9.27
2019-04-04T03:41:43.844Z,9.23
2019-04-04T03:44:13.741Z,7.90
2019-04-04T03:46:43.724Z,9.23
2019-04-04T03:49:13.733Z,8.10
2019-04-04T03:51:43.861Z,9.23
2019-04-04T03:54:22.009Z,9.77
2019-04-04T03:56:50.462Z,10.03
2019-04-04T03:59:20.786Z,11.20
2019-04-04T04:01:50.927Z,11.03
2019-04-04T04:04:20.901Z,11.43
2019-04-04T04:06:50.907Z,12.10
2019-04-04T04:09:20.892Z,10.37
2019-04-04T04:11:50.840Z,9.77
2019-04-04T04:14:21.971Z,9.47
2019-04-04T04:16:52.599Z,9.80
2019-04-04T04:19:24.553Z,9.50
2019-04-04T04:21:54.175Z,9.60
2019-04-04T04:24:26.527Z,10.17
2019-04-04T04:26:55.907Z,9.20
2019-04-04T04:31:55.248Z,10.97
2019-04-04T04:34:25.224Z,9.40
2019-04-04T04:36:55.227Z,10.00
2019-04-04T04:39:25.206Z,11.67
2019-04-04T04:41:55.202Z,11.83
2019-04-04T04:44:26.031Z,11.60
2019-04-04T04:46:55.967Z,12.07
2019-04-04T04:49:25.911Z,11.20
2019-04-04T04:51:55.833Z,10.73
2019-04-04T04:54:26.115Z,11.50
2019-04-04T04:56:56.071Z,11.17
2019-04-04T04:59:26.018Z,10.80
2019-04-04T05:01:57.309Z,10.80
2019-04-04T05:04:28.288Z,10.10
2019-04-04T05:06:58.864Z,9.60
2019-04-04T05:09:28.888Z,9.50
2019-04-04T05:11:58.869Z,11.10
2019-04-04T05:14:29.816Z,10.83
2019-04-04T05:17:00.385Z,10.80
2019-04-04T05:19:30.399Z,11.33
2019-04-04T05:22:00.366Z,11.87
2019-04-04T05:24:30.354Z,10.50
2019-04-04T05:27:00.289Z,13.00
2019-04-04T05:29:30.270Z,11.57
2019-04-04T05:32:00.264Z,13.90
2019-04-04T05:34:30.878Z,12.83
2019-04-04T05:37:01.079Z,12.87
2019-04-04T05:39:31.017Z,12.70
2019-04-04T05:42:01.192Z,13.70
2019-04-04T05:44:34.046Z,13.20
2019-04-04T05:47:02.839Z,13.27
2019-04-04T05:49:32.750Z,13.73
2019-04-04T05:52:02.683Z,13.30
2019-04-04T05:54:32.635Z,13.73
2019-04-04T05:57:03.395Z,13.70
2019-04-04T05:59:33.649Z,14.23
2019-04-04T06:04:32.637Z,14.17
2019-04-04T06:07:04.299Z,11.60
2019-04-04T06:09:34.226Z,12.73
2019-04-04T06:12:04.227Z,12.80
2019-04-04T06:14:34.156Z,13.03
2019-04-04T06:17:05.138Z,15.80
2019-04-04T06:19:35.697Z,11.43
2019-04-04T06:22:05.734Z,12.60
2019-04-04T06:24:35.687Z,13.30
2019-04-04T06:27:07.097Z,12.40
2019-04-04T06:29:37.678Z,13.97
2019-04-04T06:32:07.602Z,12.97
2019-04-04T06:34:37.629Z,13.03
2019-04-04T06:37:07.577Z,12.47
2019-04-04T06:39:37.487Z,12.90
2019-04-04T06:42:06.582Z,12.83
2019-04-04T06:44:36.492Z,11.90
2019-04-04T06:47:06.428Z,12.30
2019-04-04T06:49:36.414Z,12.13
2019-04-04T06:52:09.171Z,12.77
2019-04-04T06:54:37.958Z,11.60
2019-04-04T06:57:08.062Z,13.80
2019-04-04T06:59:38.234Z,10.60
2019-04-04T07:02:08.242Z,11.23
2019-04-04T07:04:38.168Z,11.97
2019-04-04T07:07:08.136Z,12.03
2019-04-04T07:09:38.164Z,11.03
2019-04-04T07:12:20.849Z,11.60
2019-04-04T07:14:46.312Z,11.40
2019-04-04T07:17:16.192Z,11.70
2019-04-04T07:19:46.265Z,11.90
2019-04-04T07:22:16.837Z,12.17
2019-04-04T07:24:46.802Z,12.07
2019-04-04T07:27:16.881Z,10.83
2019-04-04T07:29:47.652Z,13.23
2019-04-04T07:32:17.624Z,11.27
2019-04-04T07:34:47.764Z,12.27
2019-04-04T07:37:17.855Z,11.83
2019-04-04T07:39:50.039Z,12.57
2019-04-04T07:42:19.478Z,12.40
2019-04-04T07:44:49.475Z,12.13
2019-04-04T07:47:19.395Z,12.50
2019-04-04T07:49:49.403Z,12.53
2019-04-04T07:52:19.365Z,12.27
2019-04-04T07:54:49.317Z,13.13
2019-04-04T07:57:19.832Z,10.83
2019-04-04T07:59:50.195Z,11.73
2019-04-04T08:02:20.215Z,12.10
2019-04-04T08:04:50.157Z,12.40
2019-04-04T08:07:20.077Z,13.10
2019-04-04T08:09:50.027Z,10.53
2019-04-04T08:12:19.931Z,11.00
2019-04-04T08:14:49.958Z,11.53
2019-04-04T08:17:20.005Z,11.67
2019-04-04T08:19:59.265Z,10.90
2019-04-04T08:22:21.684Z,11.73
2019-04-04T08:24:51.842Z,13.50
2019-04-04T08:27:22.940Z,11.37
2019-04-04T08:29:52.892Z,11.97
2019-04-04T08:32:22.944Z,12.40
2019-04-04T08:34:52.820Z,12.20
2019-04-04T08:37:22.818Z,11.97
2019-04-04T08:39:52.819Z,11.20
2019-04-04T08:42:22.766Z,11.03
2019-04-04T08:44:52.766Z,11.80
2019-04-04T08:47:22.712Z,12.40
2019-04-04T08:49:52.726Z,12.33
2019-04-04T08:52:22.639Z,11.73
2019-04-04T08:54:52.598Z,11.90
2019-04-04T08:57:23.261Z,12.77
2019-04-04T08:59:53.233Z,11.80
2019-04-04T09:02:24.019Z,12.13
2019-04-04T09:04:53.961Z,11.40
2019-04-04T09:07:24.030Z,12.40
2019-04-04T09:12:23.615Z,11.47
2019-04-04T09:14:53.526Z,12.70
2019-04-04T09:17:23.433Z,14.33
2019-04-04T09:19:53.373Z,13.40
2019-04-04T09:22:24.274Z,11.20
2019-04-04T09:24:54.594Z,12.20
2019-04-04T09:27:24.503Z,12.57
2019-04-04T09:29:54.921Z,12.47
2019-04-04T09:32:24.854Z,13.07
2019-04-04T09:34:54.876Z,12.90
2019-04-04T09:37:24.911Z,12.80
2019-04-04T09:39:54.861Z,12.00
2019-04-04T09:42:24.779Z,12.30
2019-04-04T09:44:54.788Z,11.87
2019-04-04T09:47:24.712Z,15.10
2019-04-04T09:49:54.850Z,15.07
2019-04-04T09:52:24.791Z,13.13
2019-04-04T09:54:54.736Z,13.40
2019-04-04T09:57:24.675Z,15.13
2019-04-04T09:59:55.018Z,13.57
2019-04-04T10:02:24.962Z,14.43
2019-04-04T10:04:54.886Z,13.60
2019-04-04T10:07:25.285Z,15.07
2019-04-04T10:09:55.459Z,15.50
2019-04-04T10:12:25.398Z,14.57
2019-04-04T10:14:55.362Z,15.13
2019-04-04T10:17:25.267Z,14.90
2019-04-04T10:19:55.248Z,15.43
2019-04-04T10:22:25.184Z,16.37
2019-04-04T10:24:55.112Z,16.30
2019-04-04T10:27:25.046Z,16.00
2019-04-04T10:29:54.983Z,15.40
2019-04-04T10:32:24.938Z,18.13
2019-04-04T10:34:54.895Z,14.57
2019-04-04T10:37:24.824Z,16.40
2019-04-04T10:39:54.822Z,16.87
2019-04-04T10:42:24.914Z,16.87
2019-04-04T10:44:54.854Z,16.70
2019-04-04T10:47:24.829Z,18.17
2019-04-04T10:49:55.090Z,17.77
2019-04-04T10:52:24.992Z,17.30
2019-04-04T10:54:55.030Z,17.80
2019-04-04T10:57:24.972Z,17.10
2019-04-04T10:59:55.581Z,17.67
2019-04-04T11:02:26.516Z,19.53
2019-04-04T11:04:56.456Z,18.83
2019-04-04T11:07:26.507Z,17.90
2019-04-04T11:09:56.511Z,16.80
2019-04-04T11:12:26.528Z,17.73
2019-04-04T11:14:56.567Z,19.20
2019-04-04T11:17:26.538Z,16.23
2019-04-04T11:19:58.234Z,16.80
2019-04-04T11:22:28.202Z,18.27
2019-04-04T11:24:58.178Z,17.13
2019-04-04T11:27:28.085Z,17.33
2019-04-04T11:29:58.032Z,16.97
2019-04-04T11:32:28.175Z,17.73
2019-04-04T11:34:58.169Z,16.20
2019-04-04T11:37:28.114Z,16.73
2019-04-04T11:39:58.027Z,16.63
2019-04-04T11:42:28.095Z,16.17
2019-04-04T11:44:58.168Z,15.33
2019-04-04T11:47:28.094Z,15.90
2019-04-04T11:49:58.184Z,18.67
2019-04-04T11:52:28.224Z,17.83
2019-04-04T11:55:02.200Z,17.30
2019-04-04T11:57:32.239Z,17.93
2019-04-04T12:00:02.281Z,16.33
2019-04-04T12:02:32.912Z,15.10
2019-04-04T12:05:03.032Z,16.73
2019-04-04T12:07:33.036Z,17.13
2019-04-04T12:10:07.571Z,17.90
2019-04-04T12:12:34.605Z,18.80
2019-04-04T12:15:06.091Z,18.67
2019-04-04T12:17:37.576Z,16.60
2019-04-04T12:20:07.524Z,18.03
2019-04-04T12:22:37.518Z,17.77
2019-04-04T12:25:07.607Z,15.20
2019-04-04T12:27:37.611Z,17.67
2019-04-04T12:30:07.740Z,16.87
2019-04-04T12:32:37.672Z,16.40
2019-04-04T12:35:07.579Z,17.97
2019-04-04T12:37:37.516Z,15.60
2019-04-04T12:40:19.409Z,18.50
2019-04-04T12:42:39.167Z,16.93
2019-04-04T12:45:09.777Z,17.33
2019-04-04T12:47:39.960Z,16.47
2019-04-04T12:50:10.060Z,19.70
2019-04-04T12:52:40.005Z,18.30
2019-04-04T12:55:09.917Z,16.00
2019-04-04T12:57:39.889Z,19.73
2019-04-04T13:00:10.737Z,18.93
2019-04-04T13:02:40.753Z,19.53
2019-04-04T13:05:10.737Z,20.13
2019-04-04T13:07:40.670Z,20.10
2019-04-04T13:10:11.854Z,20.80
2019-04-04T13:12:42.151Z,20.23
2019-04-04T13:15:12.242Z,21.03
2019-04-04T13:17:42.272Z,20.10
2019-04-04T13:20:12.384Z,20.50
2019-04-04T13:22:42.410Z,18.57
2019-04-04T13:25:12.490Z,19.40
2019-04-04T13:27:42.626Z,21.57
2019-04-04T13:30:12.546Z,20.93
2019-04-04T13:32:42.551Z,24.30
2019-04-04T13:35:12.582Z,23.70
2019-04-04T13:37:42.561Z,24.53
2019-04-04T13:40:12.478Z,24.27
2019-04-04T13:42:42.418Z,28.20
2019-04-04T13:45:12.431Z,26.87
2019-04-04T13:47:42.385Z,26.17
2019-04-04T13:50:19.701Z,26.90
2019-04-04T13:52:48.024Z,26.90
2019-04-04T13:55:17.914Z,27.60
2019-04-04T13:57:48.274Z,28.33
2019-04-04T14:00:18.356Z,28.80
2019-04-04T14:02:48.479Z,23.03
2019-04-04T14:05:18.417Z,24.20
2019-04-04T14:07:48.798Z,24.60
2019-04-04T14:10:19.667Z,24.00
2019-04-04T14:12:49.687Z,22.90
2019-04-04T14:15:19.615Z,26.03
2019-04-04T14:17:49.618Z,26.13
2019-04-04T14:20:19.543Z,25.50
2019-04-04T14:22:51.097Z,26.57
2019-04-04T14:25:21.069Z,25.70
2019-04-04T14:27:51.087Z,26.27
2019-04-04T14:30:21.107Z,23.10
2019-04-04T14:32:51.046Z,26.97
2019-04-04T14:35:20.958Z,26.67
2019-04-04T14:37:51.003Z,23.37
2019-04-04T14:40:21.856Z,25.07
2019-04-04T14:42:51.765Z,20.07
2019-04-04T14:45:21.755Z,23.27
2019-04-04T14:47:52.503Z,22.23
2019-04-04T14:50:22.425Z,21.67
2019-04-04T14:52:52.407Z,21.73
2019-04-04T14:55:22.334Z,22.10
2019-04-04T14:57:56.348Z,22.80
2019-04-04T15:00:26.511Z,23.03
2019-04-04T15:02:56.756Z,23.83
2019-04-04T15:05:26.962Z,24.77
2019-04-04T15:07:57.249Z,24.10
2019-04-04T15:10:27.191Z,23.73
2019-04-04T15:12:58.071Z,22.97
2019-04-04T15:15:28.100Z,24.37
2019-04-04T15:17:58.057Z,24.87
2019-04-04T15:20:28.221Z,25.07
2019-04-04T15:22:58.350Z,22.60
2019-04-04T15:25:28.542Z,24.77
2019-04-04T15:27:58.691Z,21.77
2019-04-04T15:30:28.765Z,22.57
2019-04-04T15:32:58.871Z,21.80
2019-04-04T15:35:29.278Z,23.27
2019-04-04T15:37:59.397Z,24.00
2019-04-04T15:40:29.570Z,22.87
2019-04-04T15:43:00.014Z,22.30
2019-04-04T15:45:30.344Z,21.00
2019-04-04T15:48:00.343Z,23.47
2019-04-04T15:50:30.343Z,22.50
2019-04-04T15:53:00.362Z,24.27
2019-04-04T15:55:30.002Z,22.80
2019-04-04T15:57:59.957Z,24.87
2019-04-04T16:00:29.992Z,22.90
2019-04-04T16:03:00.034Z,23.53
2019-04-04T16:05:30.062Z,22.00
2019-04-04T16:08:00.662Z,23.63
2019-04-04T16:10:30.780Z,26.20
2019-04-04T16:13:00.881Z,25.10
2019-04-04T16:15:30.874Z,22.93
2019-04-04T16:18:01.454Z,24.83
2019-04-04T16:20:31.707Z,24.07
2019-04-04T16:23:01.686Z,22.63
2019-04-04T16:25:31.721Z,25.40
2019-04-04T16:28:01.789Z,25.47
2019-04-04T16:30:31.760Z,24.33
2019-04-04T16:33:03.085Z,25.50
2019-04-04T16:35:33.194Z,26.10
2019-04-04T16:38:03.193Z,28.03
2019-04-04T16:40:33.161Z,26.20
2019-04-04T16:43:03.225Z,26.13
2019-04-04T16:45:33.266Z,25.60
2019-04-04T16:48:03.487Z,25.30
2019-04-04T16:50:33.755Z,27.13
2019-04-04T16:53:03.650Z,26.90
2019-04-04T16:55:33.863Z,24.50
2019-04-04T16:58:03.965Z,25.00
2019-04-04T17:00:57.174Z,26.20
2019-04-04T17:03:27.292Z,24.87
2019-04-04T17:06:09.773Z,26.13
2019-04-04T17:08:39.826Z,27.63
2019-04-04T17:11:09.855Z,22.30
2019-04-04T17:13:39.889Z,23.60
2019-04-04T17:16:09.911Z,23.23
2019-04-04T17:18:40.043Z,25.60
2019-04-04T17:21:10.082Z,25.57
2019-04-04T17:23:40.164Z,25.30
2019-04-04T17:26:10.809Z,23.53
2019-04-04T17:28:41.110Z,24.73
2019-04-04T17:31:11.254Z,24.80
2019-04-04T17:33:42.767Z,25.07
2019-04-04T17:36:13.072Z,24.80
2019-04-04T17:38:43.822Z,25.43
2019-04-04T17:41:13.968Z,24.43
2019-04-04T17:43:44.038Z,26.13
2019-04-04T17:46:14.058Z,28.73
2019-04-04T17:48:44.182Z,26.40
2019-04-04T17:51:14.641Z,25.47
2019-04-04T17:53:44.806Z,28.60
2019-04-04T17:56:14.854Z,26.90
2019-04-04T17:58:44.804Z,28.60
2019-04-04T18:01:15.029Z,29.70
2019-04-04T18:03:44.954Z,28.80
2019-04-04T18:06:14.993Z,30.40
2019-04-04T18:08:45.002Z,29.33
2019-04-04T18:11:15.049Z,26.93
2019-04-04T18:13:44.982Z,27.70
2019-04-04T18:16:15.523Z,28.33
2019-04-04T18:18:45.430Z,26.60
2019-04-04T18:21:15.457Z,27.20
2019-04-04T18:23:45.389Z,30.87
2019-04-04T18:26:15.361Z,29.27
2019-04-04T18:28:45.345Z,27.90
2019-04-04T18:31:17.045Z,28.00
2019-04-04T18:33:47.237Z,29.03
2019-04-04T18:36:17.459Z,31.10
2019-04-04T18:38:47.371Z,28.40
2019-04-04T18:41:17.408Z,28.83
2019-04-04T18:43:47.342Z,29.37
2019-04-04T18:46:17.292Z,28.53
2019-04-04T18:48:47.713Z,29.00
2019-04-04T18:51:17.808Z,28.47
2019-04-04T18:53:47.788Z,29.10
2019-04-04T18:56:17.729Z,29.10
2019-04-04T18:58:47.680Z,29.00
2019-04-04T19:01:17.716Z,30.77
2019-04-04T19:03:47.646Z,30.40
2019-04-04T19:06:17.671Z,31.73
2019-04-04T19:08:50.689Z,29.10
2019-04-04T19:11:26.388Z,29.20
2019-04-04T19:13:56.687Z,31.83
2019-04-04T19:16:26.790Z,28.60
2019-04-04T19:18:56.704Z,27.80
2019-04-04T19:21:26.937Z,30.67
2019-04-04T19:23:56.930Z,31.80
2019-04-04T19:26:26.975Z,27.60
2019-04-04T19:28:57.062Z,30.70
2019-04-04T19:31:28.641Z,29.50
2019-04-04T19:33:58.760Z,32.07
2019-04-04T19:36:28.814Z,30.17
2019-04-04T19:38:58.714Z,30.70
2019-04-04T19:41:28.719Z,30.50
2019-04-04T19:43:58.738Z,31.17
2019-04-04T19:46:36.851Z,33.03
2019-04-04T19:49:00.375Z,30.73
2019-04-04T19:51:30.388Z,30.30
2019-04-04T19:54:00.419Z,31.80
2019-04-04T19:56:30.727Z,29.10
2019-04-04T19:59:00.788Z,32.37
2019-04-04T20:01:30.742Z,31.40
2019-04-04T20:04:02.255Z,29.83
2019-04-04T20:06:32.863Z,30.50
2019-04-04T20:09:03.385Z,32.20
2019-04-04T20:11:33.327Z,31.97
2019-04-04T20:14:03.625Z,34.53
2019-04-04T20:16:33.565Z,33.53
2019-04-04T20:19:03.538Z,33.47
2019-04-04T20:21:34.762Z,34.67
2019-04-04T20:24:04.702Z,34.70
2019-04-04T20:26:34.787Z,32.97
2019-04-04T20:29:05.110Z,35.50
2019-04-04T20:31:35.144Z,34.50
2019-04-04T20:34:06.140Z,35.10
2019-04-04T20:36:37.331Z,34.03
2019-04-04T20:39:07.696Z,35.30
2019-04-04T20:41:37.634Z,35.50
2019-04-04T20:44:07.669Z,36.73
2019-04-04T20:46:37.724Z,34.20
2019-04-04T20:49:07.685Z,36.70
2019-04-04T20:51:37.802Z,35.20
2019-04-04T20:54:07.743Z,36.30
2019-04-04T20:56:37.741Z,36.20
2019-04-04T20:59:07.815Z,37.23
2019-04-04T21:01:37.859Z,39.17
2019-04-04T21:04:07.837Z,39.97
2019-04-04T21:06:37.886Z,38.37
2019-04-04T21:09:08.458Z,38.43
2019-04-04T21:11:38.502Z,38.60
2019-04-04T21:14:09.622Z,40.23
2019-04-04T21:16:39.993Z,38.90
2019-04-04T21:19:09.959Z,38.80
2019-04-04T21:21:41.058Z,40.13
2019-04-04T21:24:11.354Z,36.33
2019-04-04T21:26:41.755Z,38.07
2019-04-04T21:29:11.712Z,38.30
2019-04-04T21:31:42.538Z,35.93
2019-04-04T21:34:13.478Z,37.57
2019-04-04T21:36:43.504Z,37.77
2019-04-04T21:39:13.824Z,39.07
2019-04-04T21:41:43.867Z,34.07
2019-04-04T21:44:13.784Z,37.50
2019-04-04T21:46:44.896Z,35.90
2019-04-04T21:49:15.025Z,35.77
2019-04-04T21:51:45.035Z,33.37
2019-04-04T21:54:14.969Z,36.93
2019-04-04T21:56:44.923Z,35.00
2019-04-04T21:59:14.964Z,37.20
2019-04-04T22:01:45.074Z,36.47
2019-04-04T22:04:15.081Z,37.03
2019-04-04T22:06:45.244Z,37.30
2019-04-04T22:09:17.828Z,38.83
2019-04-04T22:11:47.836Z,34.43
2019-04-04T22:14:21.949Z,35.40
2019-04-04T22:16:49.490Z,37.47
2019-04-04T22:19:19.539Z,34.07
2019-04-04T22:21:49.545Z,33.83
2019-04-04T22:24:22.254Z,33.17
2019-04-04T22:26:51.185Z,33.90
2019-04-04T22:29:21.432Z,30.70
2019-04-04T22:31:51.451Z,32.50
2019-04-04T22:34:21.677Z,31.87
2019-04-04T22:36:51.695Z,30.63
2019-04-04T22:39:21.735Z,29.70
2019-04-04T22:41:51.634Z,30.50
2019-04-04T22:44:34.079Z,28.50
2019-04-04T22:46:54.197Z,26.00
2019-04-04T22:49:24.136Z,28.57
2019-04-04T22:51:55.280Z,28.63
2019-04-04T22:54:25.303Z,27.17
2019-04-04T22:56:56.518Z,28.07
2019-04-04T22:59:26.563Z,29.03
2019-04-04T23:01:56.577Z,27.33
2019-04-04T23:04:26.688Z,26.00
2019-04-04T23:06:56.716Z,25.70
2019-04-04T23:09:26.739Z,28.10
2019-04-04T23:11:56.876Z,27.70
2019-04-04T23:14:26.911Z,26.57
2019-04-04T23:16:56.981Z,26.83
2019-04-04T23:19:27.083Z,26.70
2019-04-04T23:21:57.949Z,27.87
2019-04-04T23:24:27.896Z,28.77
2019-04-04T23:26:57.829Z,26.87
2019-04-04T23:29:27.796Z,26.77
2019-04-04T23:31:57.798Z,25.80
2019-04-04T23:34:27.812Z,30.50
2019-04-04T23:36:57.767Z,29.93
2019-04-04T23:39:27.710Z,26.07
2019-04-04T23:41:57.619Z,25.20
2019-04-04T23:44:27.632Z,26.03
2019-04-04T23:46:57.626Z,27.10
2019-04-04T23:49:28.934Z,28.97
2019-04-04T23:51:58.849Z,27.40
2019-04-04T23:54:28.874Z,27.33
2019-04-04T23:56:58.898Z,28.00
2019-04-04T23:59:28.946Z,27.43
